GRZ551 Details

Departure: (PADQ)
Arrival: Ted Stevens Anchorage International Airport (PANC)
Route: ODK Q49 AMOTT AMOTT4


Current Weather Information
PADQ 250353Z AUTO 01003KT 10SM CLR 18/09 A2981 RMK AO2 SLP095 T01780089 TSNO $
PANC 250353Z 24005KT 10SM FEW060 SCT200 18/07 A2975 RMK AO2 SLP075 T01830072